createdAt,value
2022-10-22T00:02:27.865Z,74.65
2022-10-22T00:04:57.029Z,74.75
2022-10-22T00:07:24.270Z,74.61
2022-10-22T00:09:50.816Z,74.88
2022-10-22T00:12:18.920Z,74.80
2022-10-22T00:14:45.601Z,74.93
2022-10-22T00:17:12.123Z,75.00
2022-10-22T00:19:39.452Z,75.13
2022-10-22T00:22:06.656Z,75.25
2022-10-22T00:24:34.930Z,75.22
2022-10-22T00:27:01.721Z,75.28
2022-10-22T00:29:28.518Z,75.21
2022-10-22T00:34:23.015Z,75.06
2022-10-22T00:37:03.379Z,74.97
2022-10-22T00:39:29.884Z,75.17
2022-10-22T00:42:02.642Z,75.17
2022-10-22T00:45:02.884Z,75.19
2022-10-22T00:47:33.488Z,75.13
2022-10-22T00:50:00.668Z,75.24
2022-10-22T00:52:27.379Z,75.24
2022-10-22T00:54:54.046Z,75.44
2022-10-22T00:57:20.876Z,75.39
2022-10-22T00:59:48.378Z,75.60
2022-10-22T01:02:15.454Z,75.52
2022-10-22T01:04:41.961Z,75.57
2022-10-22T01:07:16.163Z,75.44
2022-10-22T01:09:47.538Z,75.61
2022-10-22T01:12:19.726Z,75.38
2022-10-22T01:15:23.748Z,75.45
2022-10-22T01:18:09.660Z,75.64
2022-10-22T01:20:50.553Z,75.61
2022-10-22T01:23:45.804Z,75.60
2022-10-22T01:26:50.020Z,75.55
2022-10-22T01:29:27.724Z,75.79
2022-10-22T01:32:00.920Z,75.71
2022-10-22T01:34:28.880Z,75.71
2022-10-22T01:36:56.680Z,75.72
2022-10-22T01:41:55.328Z,75.91
2022-10-22T01:47:17.473Z,75.78
2022-10-22T01:49:57.307Z,75.91
2022-10-22T01:52:45.951Z,76.07
2022-10-22T01:55:12.452Z,75.98
2022-10-22T01:58:14.054Z,76.13
2022-10-22T02:01:18.672Z,75.87
2022-10-22T02:03:51.059Z,76.17
2022-10-22T02:06:21.026Z,76.17
2022-10-22T02:08:48.696Z,76.09
2022-10-22T02:11:15.688Z,76.07
2022-10-22T02:13:48.693Z,76.22
2022-10-22T02:16:25.560Z,76.27
2022-10-22T02:18:54.899Z,76.34
2022-10-22T02:21:21.727Z,76.32
2022-10-22T02:23:48.370Z,76.36
2022-10-22T02:26:22.878Z,76.45
2022-10-22T02:28:53.508Z,76.46
2022-10-22T02:31:24.832Z,76.49
2022-10-22T02:33:54.511Z,76.69
2022-10-22T02:36:22.067Z,76.47
2022-10-22T02:38:49.210Z,76.55
2022-10-22T02:41:17.157Z,76.60
2022-10-22T02:43:53.699Z,76.55
2022-10-22T02:46:20.544Z,76.49
2022-10-22T02:48:47.328Z,76.92
2022-10-22T02:51:13.869Z,76.71
2022-10-22T02:53:40.699Z,76.91
2022-10-22T02:56:07.596Z,76.74
2022-10-22T02:58:34.075Z,76.85
2022-10-22T03:01:00.682Z,76.89
2022-10-22T03:03:29.924Z,77.12
2022-10-22T03:05:56.480Z,77.00
2022-10-22T03:08:22.979Z,77.19
2022-10-22T03:10:52.854Z,77.09
2022-10-22T03:13:21.484Z,77.11
2022-10-22T03:15:51.398Z,77.41
2022-10-22T03:18:18.090Z,77.28
2022-10-22T03:20:44.615Z,77.29
2022-10-22T03:23:12.623Z,77.36
2022-10-22T03:25:40.686Z,77.53
2022-10-22T03:28:09.514Z,77.41
2022-10-22T03:30:36.035Z,77.46
2022-10-22T03:33:03.091Z,77.59
2022-10-22T03:35:31.497Z,77.55
2022-10-22T03:38:00.520Z,77.52
2022-10-22T03:40:27.194Z,77.53
2022-10-22T03:42:53.688Z,77.53
2022-10-22T03:45:20.325Z,77.55
2022-10-22T03:47:46.783Z,77.71
2022-10-22T03:50:13.273Z,77.76
2022-10-22T03:52:40.148Z,77.75
2022-10-22T03:55:07.810Z,77.84
2022-10-22T03:57:34.454Z,77.76
2022-10-22T04:00:00.989Z,77.84
2022-10-22T04:02:27.683Z,77.81
2022-10-22T04:04:54.207Z,77.80
2022-10-22T04:07:20.771Z,77.85
2022-10-22T04:09:47.551Z,77.59
2022-10-22T04:12:14.177Z,77.80
2022-10-22T04:14:40.692Z,77.71
2022-10-22T04:17:07.360Z,77.71
2022-10-22T04:19:34.092Z,77.76
2022-10-22T04:22:03.011Z,77.69
2022-10-22T04:24:30.723Z,77.42
2022-10-22T04:26:57.230Z,77.81
2022-10-22T04:29:24.541Z,77.86
2022-10-22T04:31:51.129Z,77.73
2022-10-22T04:34:17.678Z,77.87
2022-10-22T04:36:44.196Z,77.67
2022-10-22T04:39:10.751Z,77.73
2022-10-22T04:41:39.186Z,77.87
2022-10-22T04:44:06.738Z,77.76
2022-10-22T04:46:35.284Z,77.80
2022-10-22T04:49:03.933Z,77.59
2022-10-22T04:51:31.028Z,77.83
2022-10-22T04:53:57.589Z,77.83
2022-10-22T04:56:26.411Z,77.92
2022-10-22T04:59:04.774Z,78.04
2022-10-22T05:01:42.824Z,77.98
2022-10-22T05:04:13.138Z,78.07
2022-10-22T05:06:39.806Z,77.99
2022-10-22T05:09:10.677Z,77.87
2022-10-22T05:11:41.502Z,78.00
2022-10-22T05:14:09.436Z,78.04
2022-10-22T05:16:36.212Z,77.93
2022-10-22T05:19:02.912Z,77.88
2022-10-22T05:21:29.915Z,77.94
2022-10-22T05:23:57.353Z,77.87
2022-10-22T05:26:25.107Z,78.01
2022-10-22T05:28:52.264Z,77.96
2022-10-22T05:31:19.563Z,77.92
2022-10-22T05:33:46.564Z,77.78
2022-10-22T05:36:15.934Z,77.85
2022-10-22T05:38:42.399Z,77.77
2022-10-22T05:41:28.336Z,77.85
2022-10-22T05:43:58.868Z,77.74
2022-10-22T05:46:27.588Z,77.89
2022-10-22T05:48:56.355Z,77.87
2022-10-22T05:51:23.020Z,77.85
2022-10-22T05:53:52.940Z,77.82
2022-10-22T05:56:19.428Z,77.88
2022-10-22T05:58:46.518Z,77.71
2022-10-22T06:01:15.615Z,77.81
2022-10-22T06:03:42.792Z,77.66
2022-10-22T06:06:35.489Z,77.70
2022-10-22T06:09:10.229Z,77.79
2022-10-22T06:11:36.911Z,77.57
2022-10-22T06:14:03.921Z,77.60
2022-10-22T06:16:31.271Z,77.64
2022-10-22T06:18:59.446Z,77.68
2022-10-22T06:21:25.929Z,77.49
2022-10-22T06:23:52.409Z,77.64
2022-10-22T06:26:18.945Z,77.56
2022-10-22T06:28:45.424Z,77.67
2022-10-22T06:31:11.920Z,77.51
2022-10-22T06:33:42.382Z,77.42
2022-10-22T06:36:14.879Z,77.46
2022-10-22T06:38:41.858Z,77.22
2022-10-22T06:41:10.788Z,77.26
2022-10-22T06:43:37.279Z,77.30
2022-10-22T06:46:07.231Z,77.22
2022-10-22T06:48:35.609Z,77.32
2022-10-22T06:51:06.677Z,77.11
2022-10-22T06:53:33.645Z,77.35
2022-10-22T06:56:05.160Z,77.06
2022-10-22T06:58:31.511Z,77.08
2022-10-22T07:01:06.214Z,77.06
2022-10-22T07:03:32.767Z,77.19
2022-10-22T07:06:05.668Z,76.94
2022-10-22T07:08:32.986Z,76.93
2022-10-22T07:11:11.256Z,77.00
2022-10-22T07:13:38.094Z,76.80
2022-10-22T07:16:06.124Z,76.88
2022-10-22T07:18:32.747Z,76.75
2022-10-22T07:20:59.699Z,77.02
2022-10-22T07:23:26.795Z,76.80
2022-10-22T07:25:53.490Z,76.97
2022-10-22T07:28:20.151Z,76.86
2022-10-22T07:30:46.912Z,76.73
2022-10-22T07:33:13.696Z,76.83
2022-10-22T07:35:40.535Z,76.39
2022-10-22T07:38:07.973Z,76.40
2022-10-22T07:40:35.243Z,76.33
2022-10-22T07:43:02.312Z,76.15
2022-10-22T07:45:28.820Z,76.21
2022-10-22T07:47:55.384Z,76.35
2022-10-22T07:50:21.855Z,75.96
2022-10-22T07:52:48.334Z,76.22
2022-10-22T07:55:14.864Z,75.88
2022-10-22T07:57:41.439Z,75.87
2022-10-22T08:00:09.435Z,75.89
2022-10-22T08:02:35.946Z,75.93
2022-10-22T08:05:02.440Z,75.60
2022-10-22T08:07:28.914Z,75.56
2022-10-22T08:09:55.449Z,75.19
2022-10-22T08:12:21.936Z,75.33
2022-10-22T08:14:48.398Z,75.22
2022-10-22T08:17:15.694Z,74.78
2022-10-22T08:19:42.136Z,74.94
2022-10-22T08:22:08.785Z,74.51
2022-10-22T08:24:35.514Z,74.53
2022-10-22T08:27:01.965Z,74.41
2022-10-22T08:29:28.586Z,74.59
2022-10-22T08:31:55.078Z,74.61
2022-10-22T08:34:21.829Z,74.44
2022-10-22T08:36:48.453Z,74.38
2022-10-22T08:39:14.952Z,73.88
2022-10-22T08:42:09.416Z,74.11
2022-10-22T08:44:35.889Z,74.10
2022-10-22T08:47:26.506Z,73.52
2022-10-22T08:49:53.916Z,73.56
2022-10-22T08:52:20.883Z,73.84
2022-10-22T08:54:56.009Z,73.53
2022-10-22T08:57:51.498Z,73.86
2022-10-22T09:00:31.186Z,73.74
2022-10-22T09:03:09.654Z,73.53
2022-10-22T09:05:54.776Z,73.60
2022-10-22T09:08:21.938Z,74.04
2022-10-22T09:10:51.188Z,74.06
2022-10-22T09:13:20.721Z,73.74
2022-10-22T09:15:53.042Z,73.64
2022-10-22T09:18:31.261Z,73.98
2022-10-22T09:21:02.520Z,73.92
2022-10-22T09:23:34.695Z,73.60
2022-10-22T09:26:01.418Z,73.76
2022-10-22T09:28:27.890Z,73.61
2022-10-22T09:30:54.624Z,73.94
2022-10-22T09:33:25.286Z,73.63
2022-10-22T09:35:58.699Z,73.81
2022-10-22T09:38:30.486Z,73.75
2022-10-22T09:40:59.208Z,73.79
2022-10-22T09:43:25.775Z,73.52
2022-10-22T09:46:03.957Z,73.79
2022-10-22T09:48:34.625Z,73.80
2022-10-22T09:51:10.292Z,73.55
2022-10-22T09:53:39.346Z,73.77
2022-10-22T09:56:22.866Z,73.64
2022-10-22T09:58:51.258Z,73.97
2022-10-22T10:01:30.185Z,73.87
2022-10-22T10:04:08.395Z,73.73
2022-10-22T10:06:39.009Z,73.47
2022-10-22T10:09:20.022Z,73.62
2022-10-22T10:11:52.368Z,73.46
2022-10-22T10:14:29.058Z,73.41
2022-10-22T10:17:16.566Z,73.84
2022-10-22T10:20:14.354Z,73.76
2022-10-22T10:22:59.369Z,73.61
2022-10-22T10:25:35.151Z,73.38
2022-10-22T10:28:12.748Z,73.21
2022-10-22T10:30:46.267Z,73.53
2022-10-22T10:33:31.599Z,73.33
2022-10-22T10:36:07.142Z,73.56
2022-10-22T10:38:52.441Z,73.23
2022-10-22T10:41:23.612Z,73.56
2022-10-22T10:44:12.290Z,73.33
2022-10-22T10:47:00.106Z,73.36
2022-10-22T10:49:30.248Z,73.04
2022-10-22T10:52:20.485Z,73.44
2022-10-22T10:55:08.209Z,73.41
2022-10-22T10:57:42.584Z,72.96
2022-10-22T11:00:12.383Z,72.75
2022-10-22T11:03:06.581Z,72.46
2022-10-22T11:08:15.320Z,72.20
2022-10-22T11:11:21.341Z,72.01
2022-10-22T11:13:53.830Z,72.13
2022-10-22T11:16:40.470Z,72.34
2022-10-22T11:19:22.664Z,72.48
2022-10-22T11:22:05.129Z,72.18
2022-10-22T11:24:55.069Z,72.61
2022-10-22T11:27:49.087Z,72.56
2022-10-22T11:30:22.781Z,72.79
2022-10-22T11:32:52.960Z,72.50
2022-10-22T11:35:28.272Z,72.57
2022-10-22T11:37:56.025Z,72.85
2022-10-22T11:40:33.289Z,72.68
2022-10-22T11:43:08.142Z,72.77
2022-10-22T11:45:43.016Z,72.49
2022-10-22T11:48:09.461Z,72.77
2022-10-22T11:53:13.255Z,72.75
2022-10-22T11:55:55.527Z,72.32
2022-10-22T11:58:34.041Z,72.57
2022-10-22T12:01:09.711Z,72.27
2022-10-22T12:03:49.582Z,72.17
2022-10-22T12:06:16.079Z,72.29
2022-10-22T12:09:04.911Z,72.50
2022-10-22T12:11:39.781Z,72.17
2022-10-22T12:14:26.500Z,72.82
2022-10-22T12:16:57.603Z,72.89
2022-10-22T12:21:58.373Z,72.91
2022-10-22T12:24:29.759Z,72.90
2022-10-22T12:26:56.165Z,72.57
2022-10-22T12:29:24.009Z,72.61
2022-10-22T12:31:50.644Z,72.70
2022-10-22T12:34:21.858Z,72.71
2022-10-22T12:36:49.675Z,72.84
2022-10-22T12:39:19.750Z,72.85
2022-10-22T12:41:46.519Z,72.87
2022-10-22T12:44:15.162Z,72.63
2022-10-22T12:46:43.108Z,72.79
2022-10-22T12:49:21.934Z,72.56
2022-10-22T12:51:48.852Z,72.79
2022-10-22T12:54:27.560Z,72.80
2022-10-22T12:56:55.430Z,72.49
2022-10-22T12:59:23.361Z,72.73
2022-10-22T13:01:51.559Z,72.39
2022-10-22T13:04:28.433Z,72.59
2022-10-22T13:07:21.869Z,72.17
2022-10-22T13:09:59.871Z,72.06
2022-10-22T13:12:28.429Z,71.75
2022-10-22T13:14:54.907Z,71.90
2022-10-22T13:17:37.081Z,71.47
2022-10-22T13:20:11.913Z,71.22
2022-10-22T13:22:40.414Z,71.38
2022-10-22T13:25:13.112Z,71.24
2022-10-22T13:27:51.367Z,70.88
2022-10-22T13:30:19.724Z,70.90
2022-10-22T13:32:59.404Z,70.79
2022-10-22T13:35:28.883Z,70.81
2022-10-22T13:37:55.406Z,70.95
2022-10-22T13:40:22.041Z,71.17
2022-10-22T13:42:48.735Z,71.10
2022-10-22T13:45:15.476Z,71.02
2022-10-22T13:47:43.783Z,70.75
2022-10-22T13:50:15.541Z,70.27
2022-10-22T13:53:00.184Z,70.14
2022-10-22T13:55:30.459Z,70.55
2022-10-22T13:57:59.956Z,69.94
2022-10-22T14:00:38.550Z,70.03
2022-10-22T14:03:05.747Z,70.10
2022-10-22T14:05:32.719Z,69.61
2022-10-22T14:08:00.550Z,69.58
2022-10-22T14:10:27.112Z,69.78
2022-10-22T14:12:53.803Z,69.51
2022-10-22T14:15:24.303Z,69.47
2022-10-22T14:17:54.588Z,69.57
2022-10-22T14:20:29.940Z,69.34
2022-10-22T14:22:56.867Z,69.04
2022-10-22T14:25:25.160Z,69.38
2022-10-22T14:27:52.079Z,69.34
2022-10-22T14:30:25.175Z,69.36
2022-10-22T14:32:52.431Z,69.12
2022-10-22T14:35:21.310Z,69.15
2022-10-22T14:37:48.095Z,69.01
2022-10-22T14:40:17.244Z,69.23
2022-10-22T14:42:46.205Z,69.31
2022-10-22T14:45:22.964Z,69.18
2022-10-22T14:47:50.394Z,68.94
2022-10-22T14:50:17.639Z,69.31
2022-10-22T14:52:44.693Z,69.30
2022-10-22T14:55:13.674Z,69.23
2022-10-22T14:57:40.978Z,68.90
2022-10-22T15:00:10.990Z,68.87
2022-10-22T15:02:37.573Z,68.99
2022-10-22T15:05:04.800Z,69.13
2022-10-22T15:07:31.316Z,69.20
2022-10-22T15:09:57.786Z,69.38
2022-10-22T15:12:24.360Z,69.05
2022-10-22T15:14:50.886Z,68.94
2022-10-22T15:17:18.459Z,68.77
2022-10-22T15:19:45.054Z,69.02
2022-10-22T15:22:12.560Z,68.85
2022-10-22T15:24:40.653Z,68.61
2022-10-22T15:27:08.098Z,68.42
2022-10-22T15:29:34.812Z,68.20
2022-10-22T15:32:01.444Z,68.07
2022-10-22T15:34:32.861Z,68.00
2022-10-22T15:37:00.031Z,68.16
2022-10-22T15:39:27.068Z,68.05
2022-10-22T15:41:54.323Z,68.12
2022-10-22T15:44:26.875Z,67.96
2022-10-22T15:46:56.711Z,67.95
2022-10-22T15:49:24.725Z,67.84
2022-10-22T15:51:51.498Z,67.85
2022-10-22T15:54:20.627Z,67.95
2022-10-22T15:56:47.416Z,67.87
2022-10-22T15:59:15.968Z,67.72
2022-10-22T16:01:43.110Z,67.81
2022-10-22T16:04:09.723Z,67.36
2022-10-22T16:06:41.768Z,67.71
2022-10-22T16:09:14.033Z,67.52
2022-10-22T16:11:41.098Z,67.69
2022-10-22T16:14:08.536Z,67.56
2022-10-22T16:16:37.002Z,67.70
2022-10-22T16:19:03.499Z,68.09
2022-10-22T16:21:30.189Z,68.00
2022-10-22T16:23:56.668Z,67.92
2022-10-22T16:26:23.175Z,68.12
2022-10-22T16:28:49.725Z,67.88
2022-10-22T16:31:17.636Z,67.84
2022-10-22T16:33:47.725Z,67.52
2022-10-22T16:36:18.161Z,67.68
2022-10-22T16:38:45.160Z,67.37
2022-10-22T16:41:15.771Z,67.40
2022-10-22T16:43:44.205Z,67.57
2022-10-22T16:46:11.583Z,67.66
2022-10-22T16:48:40.765Z,67.54
2022-10-22T16:51:09.270Z,67.65
2022-10-22T16:53:36.089Z,67.47
2022-10-22T16:56:03.278Z,67.60
2022-10-22T16:58:29.956Z,67.68
2022-10-22T17:00:56.506Z,67.28
2022-10-22T17:03:24.610Z,67.39
2022-10-22T17:05:54.010Z,67.51
2022-10-22T17:08:20.451Z,67.37
2022-10-22T17:10:47.048Z,67.37
2022-10-22T17:13:13.522Z,67.30
2022-10-22T17:15:40.568Z,67.34
2022-10-22T17:18:07.055Z,67.53
2022-10-22T17:20:33.536Z,67.56
2022-10-22T17:23:00.004Z,67.39
2022-10-22T17:25:36.550Z,67.30
2022-10-22T17:28:03.115Z,67.47
2022-10-22T17:30:30.361Z,67.39
2022-10-22T17:32:57.129Z,67.27
2022-10-22T17:35:23.666Z,67.43
2022-10-22T17:37:50.205Z,67.52
2022-10-22T17:40:16.751Z,67.87
2022-10-22T17:42:45.387Z,67.66
2022-10-22T17:45:11.905Z,68.00
2022-10-22T17:47:38.403Z,67.89
2022-10-22T17:50:05.332Z,67.93
2022-10-22T17:52:31.875Z,68.01
2022-10-22T17:54:58.407Z,68.07
2022-10-22T17:57:24.853Z,68.09
2022-10-22T17:59:51.327Z,68.38
2022-10-22T18:02:18.442Z,68.28
2022-10-22T18:04:45.331Z,68.28
2022-10-22T18:07:11.892Z,68.47
2022-10-22T18:09:39.312Z,68.41
2022-10-22T18:12:06.264Z,68.39
2022-10-22T18:14:42.525Z,68.35
2022-10-22T18:17:10.181Z,68.44
2022-10-22T18:19:36.915Z,68.49
2022-10-22T18:22:03.494Z,68.61
2022-10-22T18:24:30.013Z,68.54
2022-10-22T18:26:56.573Z,68.55
2022-10-22T18:29:23.127Z,68.68
2022-10-22T18:31:52.611Z,68.79
2022-10-22T18:34:21.808Z,68.96
2022-10-22T18:36:50.657Z,68.63
2022-10-22T18:39:17.663Z,68.58
2022-10-22T18:41:44.385Z,68.83
2022-10-22T18:44:13.220Z,68.65
2022-10-22T18:46:40.487Z,68.64
2022-10-22T18:49:07.608Z,68.57
2022-10-22T18:51:34.920Z,68.62
2022-10-22T18:54:05.764Z,68.58
2022-10-22T18:56:39.996Z,68.86
2022-10-22T18:59:06.545Z,68.63
2022-10-22T19:01:35.398Z,68.57
2022-10-22T19:04:02.063Z,68.46
2022-10-22T19:06:34.569Z,68.49
2022-10-22T19:09:04.175Z,68.75
2022-10-22T19:11:31.495Z,68.67
2022-10-22T19:13:58.093Z,68.69
2022-10-22T19:16:24.664Z,68.58
2022-10-22T19:18:52.877Z,68.71
2022-10-22T19:21:20.020Z,68.80
2022-10-22T19:23:46.596Z,68.74
2022-10-22T19:26:16.163Z,68.70
2022-10-22T19:28:43.144Z,68.75
2022-10-22T19:31:13.202Z,68.84
2022-10-22T19:33:39.985Z,68.85
2022-10-22T19:36:08.771Z,68.85
2022-10-22T19:38:38.586Z,68.83
2022-10-22T19:41:09.887Z,68.90
2022-10-22T19:43:36.392Z,69.04
2022-10-22T19:46:05.604Z,68.87
2022-10-22T19:48:32.284Z,68.82
2022-10-22T19:51:03.949Z,68.92
2022-10-22T19:53:30.872Z,69.06
2022-10-22T19:56:01.565Z,69.00
2022-10-22T19:58:28.483Z,69.11
2022-10-22T20:00:55.110Z,68.96
2022-10-22T20:03:21.815Z,69.08
2022-10-22T20:05:50.669Z,69.12
2022-10-22T20:08:17.239Z,69.19
2022-10-22T20:10:43.700Z,69.13
2022-10-22T20:13:10.183Z,69.02
2022-10-22T20:15:36.892Z,69.13
2022-10-22T20:18:03.457Z,69.08
2022-10-22T20:20:30.442Z,69.16
2022-10-22T20:22:56.997Z,69.10
2022-10-22T20:25:23.494Z,69.09
2022-10-22T20:27:49.966Z,69.13
2022-10-22T20:32:48.007Z,69.40
2022-10-22T20:35:14.960Z,69.41
2022-10-22T20:37:41.449Z,69.31
2022-10-22T20:40:08.327Z,69.40
2022-10-22T20:42:35.127Z,69.37
2022-10-22T20:45:01.608Z,69.40
2022-10-22T20:47:39.170Z,69.35
2022-10-22T20:50:14.612Z,69.45
2022-10-22T20:52:41.151Z,69.39
2022-10-22T20:55:07.988Z,69.29
2022-10-22T20:57:34.491Z,69.31
2022-10-22T21:00:00.958Z,69.38
2022-10-22T21:02:28.178Z,69.18
2022-10-22T21:04:54.683Z,69.23
2022-10-22T21:07:21.129Z,69.21
2022-10-22T21:09:47.635Z,69.23
2022-10-22T21:12:14.135Z,69.25
2022-10-22T21:14:40.677Z,69.16
2022-10-22T21:17:08.151Z,69.15
2022-10-22T21:19:34.680Z,69.11
2022-10-22T21:22:01.182Z,69.24
2022-10-22T21:24:27.628Z,69.35
2022-10-22T21:26:54.270Z,69.28
2022-10-22T21:29:21.284Z,69.40
2022-10-22T21:31:48.026Z,69.23
2022-10-22T21:34:14.944Z,69.28
2022-10-22T21:36:41.455Z,69.29
2022-10-22T21:39:08.750Z,69.24
2022-10-22T21:41:36.964Z,69.49
2022-10-22T21:44:03.583Z,69.40
2022-10-22T21:46:30.162Z,69.33
2022-10-22T21:49:02.108Z,69.37
2022-10-22T21:51:31.022Z,69.49
2022-10-22T21:53:57.640Z,69.46
2022-10-22T21:56:26.921Z,69.56
2022-10-22T21:58:53.805Z,69.62
2022-10-22T22:01:20.846Z,69.76
2022-10-22T22:03:52.408Z,69.83
2022-10-22T22:06:21.979Z,69.93
2022-10-22T22:08:49.093Z,69.87
2022-10-22T22:11:18.242Z,69.82
2022-10-22T22:13:45.415Z,69.90
2022-10-22T22:16:14.113Z,69.93
2022-10-22T22:18:41.321Z,70.19
2022-10-22T22:21:11.115Z,69.97
2022-10-22T22:23:39.327Z,70.21
2022-10-22T22:26:06.073Z,70.20
2022-10-22T22:28:33.255Z,70.11
2022-10-22T22:31:00.098Z,70.33
2022-10-22T22:33:27.240Z,70.16
2022-10-22T22:35:58.312Z,70.32
2022-10-22T22:38:24.790Z,70.40
2022-10-22T22:40:51.232Z,70.16
2022-10-22T22:43:17.710Z,70.08
2022-10-22T22:45:44.407Z,70.25
2022-10-22T22:48:10.869Z,70.35
2022-10-22T22:50:37.412Z,70.38
2022-10-22T22:53:03.914Z,70.32
2022-10-22T22:55:32.130Z,70.41
2022-10-22T22:57:58.816Z,70.33
2022-10-22T23:00:25.350Z,70.32
2022-10-22T23:02:55.728Z,70.17
2022-10-22T23:05:22.492Z,70.31
2022-10-22T23:07:49.131Z,70.16
2022-10-22T23:10:15.711Z,70.31
2022-10-22T23:12:42.414Z,70.32
2022-10-22T23:15:09.503Z,70.54
2022-10-22T23:20:07.873Z,70.58
2022-10-22T23:22:34.380Z,70.48
2022-10-22T23:25:00.939Z,70.14
2022-10-22T23:27:27.394Z,70.26
2022-10-22T23:29:53.846Z,70.29
2022-10-22T23:32:20.312Z,70.20
2022-10-22T23:34:46.793Z,70.08
2022-10-22T23:37:13.277Z,70.23
2022-10-22T23:39:39.825Z,70.06
2022-10-22T23:42:06.332Z,70.20
2022-10-22T23:44:32.904Z,70.24
2022-10-22T23:46:59.385Z,70.32
2022-10-22T23:49:25.906Z,70.34
2022-10-22T23:51:52.377Z,70.18
2022-10-22T23:54:18.929Z,70.17
2022-10-22T23:56:45.805Z,70.22
